createdAt,value
2022-08-26T00:00:56.891Z,6.25
2022-08-26T00:02:59.421Z,6.40
2022-08-26T00:05:01.182Z,6.60
2022-08-26T00:07:03.050Z,7.63
2022-08-26T00:09:08.104Z,7.38
2022-08-26T00:11:10.450Z,8.13
2022-08-26T00:13:13.513Z,8.50
2022-08-26T00:15:22.941Z,8.60
2022-08-26T00:17:25.709Z,7.78
2022-08-26T00:19:28.523Z,8.33
2022-08-26T00:21:30.350Z,8.60
2022-08-26T00:23:32.158Z,9.20
2022-08-26T00:25:34.256Z,7.80
2022-08-26T00:27:38.053Z,8.02
2022-08-26T00:29:40.346Z,7.90
2022-08-26T00:31:42.971Z,7.78
2022-08-26T00:33:47.129Z,8.13
2022-08-26T00:35:49.309Z,7.88
2022-08-26T00:37:54.067Z,7.15
2022-08-26T00:39:56.615Z,7.50
2022-08-26T00:42:02.653Z,7.70
2022-08-26T00:44:04.837Z,8.30
2022-08-26T00:46:35.413Z,7.53
2022-08-26T00:48:39.975Z,7.93
2022-08-26T00:50:50.640Z,6.82
2022-08-26T00:52:54.807Z,6.82
2022-08-26T00:55:09.505Z,7.35
2022-08-26T00:57:16.756Z,6.60
2022-08-26T00:59:19.548Z,6.78
2022-08-26T01:01:22.881Z,7.73
2022-08-26T01:05:29.373Z,7.33
2022-08-26T01:07:33.477Z,7.70
2022-08-26T01:09:36.891Z,7.55
2022-08-26T01:11:39.434Z,7.65
2022-08-26T01:13:41.535Z,7.00
2022-08-26T01:15:47.803Z,7.63
2022-08-26T01:17:49.991Z,6.95
2022-08-26T01:19:59.363Z,7.50
2022-08-26T01:22:08.230Z,7.10
2022-08-26T01:24:11.892Z,7.82
2022-08-26T01:26:24.094Z,8.13
2022-08-26T01:28:31.747Z,8.38
2022-08-26T01:30:35.632Z,7.70
2022-08-26T01:32:39.343Z,8.68
2022-08-26T01:34:41.301Z,8.63
2022-08-26T01:36:46.907Z,8.32
2022-08-26T01:38:52.654Z,8.68
2022-08-26T01:40:54.896Z,8.82
2022-08-26T01:42:56.896Z,8.00
2022-08-26T01:45:09.743Z,8.57
2022-08-26T01:47:14.716Z,8.23
2022-08-26T01:49:17.470Z,8.20
2022-08-26T01:51:22.395Z,8.57
2022-08-26T01:53:25.149Z,9.07
2022-08-26T01:55:32.963Z,9.57
2022-08-26T01:57:37.186Z,9.10
2022-08-26T02:01:41.162Z,8.82
2022-08-26T02:04:01.574Z,9.48
2022-08-26T02:06:09.182Z,8.93
2022-08-26T02:08:12.493Z,10.43
2022-08-26T02:12:20.393Z,8.63
2022-08-26T02:14:30.300Z,8.63
2022-08-26T02:16:36.693Z,8.30
2022-08-26T02:18:42.067Z,8.43
2022-08-26T02:20:44.736Z,8.60
2022-08-26T02:22:47.905Z,7.93
2022-08-26T02:25:00.178Z,8.30
2022-08-26T02:27:01.930Z,7.60
2022-08-26T02:29:10.081Z,8.27
2022-08-26T02:31:12.162Z,7.50
2022-08-26T02:33:14.070Z,7.25
2022-08-26T02:35:18.312Z,7.28
2022-08-26T02:37:22.937Z,7.53
2022-08-26T02:39:25.091Z,8.03
2022-08-26T02:41:26.841Z,7.53
2022-08-26T02:43:31.656Z,7.90
2022-08-26T02:45:34.709Z,7.45
2022-08-26T02:47:36.533Z,6.95
2022-08-26T02:49:39.253Z,7.00
2022-08-26T02:51:41.027Z,7.90
2022-08-26T02:53:44.837Z,8.25
2022-08-26T02:55:47.001Z,8.25
2022-08-26T02:57:50.151Z,7.63
2022-08-26T02:59:53.491Z,8.55
2022-08-26T03:01:56.063Z,8.18
2022-08-26T03:03:59.389Z,7.90
2022-08-26T03:06:01.130Z,8.43
2022-08-26T03:08:03.130Z,8.75
2022-08-26T03:10:08.384Z,7.82
2022-08-26T03:12:10.680Z,9.02
2022-08-26T03:14:12.480Z,8.07
2022-08-26T03:16:15.092Z,8.07
2022-08-26T03:18:17.016Z,7.68
2022-08-26T03:20:19.018Z,8.30
2022-08-26T03:22:20.784Z,8.20
2022-08-26T03:24:22.626Z,8.70
2022-08-26T03:26:28.292Z,8.98
2022-08-26T03:28:32.823Z,8.18
2022-08-26T03:30:34.738Z,7.53
2022-08-26T03:32:36.503Z,7.97
2022-08-26T03:34:39.131Z,6.82
2022-08-26T03:36:41.676Z,7.53
2022-08-26T03:38:43.490Z,8.43
2022-08-26T03:40:47.798Z,7.10
2022-08-26T03:42:50.320Z,7.22
2022-08-26T03:44:52.118Z,7.60
2022-08-26T03:46:54.373Z,6.97
2022-08-26T03:48:56.283Z,7.18
2022-08-26T03:50:58.018Z,6.95
2022-08-26T03:53:00.013Z,6.95
2022-08-26T03:55:01.991Z,7.13
2022-08-26T03:57:05.107Z,7.47
2022-08-26T03:59:07.877Z,7.05
2022-08-26T04:01:09.679Z,7.75
2022-08-26T04:03:14.736Z,7.72
2022-08-26T04:05:21.513Z,8.10
2022-08-26T04:07:24.454Z,7.47
2022-08-26T04:09:27.726Z,7.50
2022-08-26T04:11:30.690Z,7.97
2022-08-26T04:13:36.406Z,7.55
2022-08-26T04:15:38.159Z,7.03
2022-08-26T04:17:40.058Z,6.90
2022-08-26T04:19:41.785Z,6.70
2022-08-26T04:21:44.526Z,6.43
2022-08-26T04:23:47.778Z,7.57
2022-08-26T04:25:49.805Z,7.32
2022-08-26T04:27:51.822Z,7.07
2022-08-26T04:29:55.334Z,6.57
2022-08-26T04:33:59.037Z,6.07
2022-08-26T04:36:05.738Z,6.80
2022-08-26T04:38:07.469Z,7.82
2022-08-26T04:40:09.918Z,7.47
2022-08-26T04:42:11.776Z,7.10
2022-08-26T04:44:15.253Z,8.07
2022-08-26T04:46:20.806Z,6.55
2022-08-26T04:48:22.597Z,7.05
2022-08-26T04:50:24.664Z,6.30
2022-08-26T04:52:26.786Z,6.32
2022-08-26T04:54:29.970Z,7.40
2022-08-26T04:56:35.387Z,6.82
2022-08-26T04:58:37.240Z,6.45
2022-08-26T05:00:39.008Z,6.85
2022-08-26T05:02:41.184Z,6.40
2022-08-26T05:04:44.497Z,7.05
2022-08-26T05:06:47.944Z,7.25
2022-08-26T05:08:50.099Z,6.93
2022-08-26T05:10:54.731Z,6.70
2022-08-26T05:12:57.452Z,8.02
2022-08-26T05:15:00.389Z,7.75
2022-08-26T05:17:02.122Z,7.85
2022-08-26T05:19:03.979Z,7.15
2022-08-26T05:21:07.590Z,6.95
2022-08-26T05:23:09.577Z,7.43
2022-08-26T05:25:11.674Z,7.03
2022-08-26T05:27:14.367Z,6.38
2022-08-26T05:29:17.038Z,6.40
2022-08-26T05:31:22.646Z,5.68
2022-08-26T05:33:24.715Z,6.70
2022-08-26T05:35:28.736Z,6.97
2022-08-26T05:37:33.257Z,6.65
2022-08-26T05:39:36.053Z,7.35
2022-08-26T05:41:40.249Z,6.85
2022-08-26T05:43:42.390Z,6.35
2022-08-26T05:45:48.206Z,6.60
2022-08-26T05:47:51.175Z,6.10
2022-08-26T05:49:53.080Z,6.85
2022-08-26T05:51:54.815Z,6.25
2022-08-26T05:53:56.620Z,6.30
2022-08-26T05:55:59.951Z,6.90
2022-08-26T05:58:02.767Z,5.90
2022-08-26T06:00:05.514Z,5.78
2022-08-26T06:02:08.228Z,5.45
2022-08-26T06:04:11.710Z,4.93
2022-08-26T06:06:16.832Z,4.93
2022-08-26T06:08:22.478Z,5.32
2022-08-26T06:10:32.946Z,5.60
2022-08-26T06:12:34.877Z,5.85
2022-08-26T06:14:37.201Z,5.25
2022-08-26T06:16:41.813Z,5.30
2022-08-26T06:18:45.803Z,6.00
2022-08-26T06:20:57.339Z,5.30
2022-08-26T06:23:00.023Z,5.22
2022-08-26T06:25:01.789Z,5.22
2022-08-26T06:27:05.961Z,5.13
2022-08-26T06:29:08.343Z,5.03
2022-08-26T06:31:10.430Z,5.55
2022-08-26T06:33:12.850Z,5.35
2022-08-26T06:35:14.591Z,5.45
2022-08-26T06:37:16.341Z,5.63
2022-08-26T06:39:18.601Z,5.88
2022-08-26T06:41:23.198Z,5.93
2022-08-26T06:43:27.281Z,5.32
2022-08-26T06:45:30.477Z,5.97
2022-08-26T06:47:33.446Z,5.82
2022-08-26T06:49:35.899Z,6.20
2022-08-26T06:51:40.018Z,5.32
2022-08-26T06:53:43.608Z,5.65
2022-08-26T06:55:46.396Z,5.50
2022-08-26T06:57:48.164Z,5.47
2022-08-26T06:59:51.205Z,5.25
2022-08-26T07:01:53.531Z,5.65
2022-08-26T07:03:58.833Z,5.43
2022-08-26T07:06:02.954Z,5.70
2022-08-26T07:08:05.423Z,5.43
2022-08-26T07:10:08.304Z,6.07
2022-08-26T07:12:10.044Z,5.95
2022-08-26T07:14:13.184Z,5.63
2022-08-26T07:16:16.906Z,5.07
2022-08-26T07:18:18.719Z,5.80
2022-08-26T07:20:24.719Z,5.82
2022-08-26T07:22:26.759Z,5.07
2022-08-26T07:24:29.317Z,5.75
2022-08-26T07:26:31.491Z,4.80
2022-08-26T07:28:33.222Z,5.40
2022-08-26T07:30:39.820Z,5.70
2022-08-26T07:32:42.457Z,4.90
2022-08-26T07:34:44.573Z,4.85
2022-08-26T07:36:46.345Z,5.30
2022-08-26T07:38:48.644Z,4.82
2022-08-26T07:40:50.420Z,5.10
2022-08-26T07:42:52.590Z,4.65
2022-08-26T07:44:54.385Z,5.18
2022-08-26T07:46:56.167Z,5.28
2022-08-26T07:48:59.245Z,4.83
2022-08-26T07:51:01.241Z,5.03
2022-08-26T07:53:04.557Z,4.60
2022-08-26T07:55:08.149Z,4.82
2022-08-26T07:57:09.906Z,5.13
2022-08-26T07:59:14.027Z,4.30
2022-08-26T08:01:17.022Z,3.90
2022-08-26T08:03:18.897Z,4.82
2022-08-26T08:05:22.757Z,4.40
2022-08-26T08:07:44.513Z,3.80
2022-08-26T08:09:47.414Z,4.55
2022-08-26T08:11:49.692Z,4.32
2022-08-26T08:13:56.294Z,3.90
2022-08-26T08:15:58.610Z,4.28
2022-08-26T08:18:01.076Z,4.05
2022-08-26T08:20:03.074Z,4.00
2022-08-26T08:22:17.068Z,4.53
2022-08-26T08:24:19.828Z,4.20
2022-08-26T08:26:23.823Z,4.77
2022-08-26T08:30:27.746Z,3.88
2022-08-26T08:32:29.640Z,3.80
2022-08-26T08:34:31.633Z,4.10
2022-08-26T08:36:35.982Z,4.90
2022-08-26T08:38:38.077Z,4.45
2022-08-26T08:40:42.234Z,4.07
2022-08-26T08:44:59.611Z,4.38
2022-08-26T08:47:12.503Z,4.25
2022-08-26T08:49:15.552Z,5.50
2022-08-26T08:51:42.319Z,4.82
2022-08-26T08:53:48.095Z,4.28
2022-08-26T08:56:01.300Z,4.32
2022-08-26T08:58:08.595Z,4.68
2022-08-26T09:00:16.346Z,4.13
2022-08-26T09:02:30.641Z,4.43
2022-08-26T09:04:55.669Z,4.20
2022-08-26T09:07:02.152Z,4.10
2022-08-26T09:09:05.484Z,4.97
2022-08-26T09:11:07.898Z,5.07
2022-08-26T09:13:22.465Z,4.07
2022-08-26T09:15:48.529Z,4.95
2022-08-26T09:17:53.772Z,4.93
2022-08-26T09:20:06.920Z,4.50
2022-08-26T09:22:09.922Z,4.32
2022-08-26T09:24:14.006Z,5.55
2022-08-26T09:26:41.123Z,4.72
2022-08-26T09:28:47.805Z,4.82
2022-08-26T09:31:11.490Z,4.53
2022-08-26T09:33:18.567Z,4.72
2022-08-26T09:35:30.807Z,4.70
2022-08-26T09:37:53.983Z,4.10
2022-08-26T09:40:23.341Z,4.38
2022-08-26T09:42:25.110Z,4.55
2022-08-26T09:44:26.980Z,4.82
2022-08-26T09:46:28.972Z,5.30
2022-08-26T09:48:35.472Z,5.60
2022-08-26T09:50:52.157Z,3.90
2022-08-26T09:53:12.955Z,5.25
2022-08-26T09:55:24.031Z,4.78
2022-08-26T09:57:29.020Z,4.25
2022-08-26T09:59:30.794Z,4.60
2022-08-26T10:01:39.409Z,4.20
2022-08-26T10:03:42.272Z,4.05
2022-08-26T10:05:55.675Z,4.53
2022-08-26T10:07:58.327Z,3.92
2022-08-26T10:10:03.570Z,4.60
2022-08-26T10:12:19.325Z,4.55
2022-08-26T10:14:39.061Z,4.43
2022-08-26T10:16:59.195Z,4.70
2022-08-26T10:19:08.270Z,5.60
2022-08-26T10:21:31.152Z,4.53
2022-08-26T10:25:51.665Z,4.90
2022-08-26T10:28:08.130Z,4.20
2022-08-26T10:30:15.041Z,4.47
2022-08-26T10:32:41.361Z,4.55
2022-08-26T10:34:43.943Z,5.43
2022-08-26T10:37:14.547Z,4.95
2022-08-26T10:39:34.504Z,3.95
2022-08-26T10:41:41.425Z,4.30
2022-08-26T10:43:49.046Z,5.25
2022-08-26T10:45:54.903Z,4.63
2022-08-26T10:48:00.974Z,4.70
2022-08-26T10:50:03.708Z,3.78
2022-08-26T10:52:17.227Z,4.80
2022-08-26T10:54:40.293Z,4.47
2022-08-26T10:57:10.714Z,4.30
2022-08-26T10:59:34.094Z,4.32
2022-08-26T11:01:40.813Z,4.03
2022-08-26T11:03:42.771Z,4.40
2022-08-26T11:05:44.530Z,5.05
2022-08-26T11:07:48.134Z,4.28
2022-08-26T11:09:51.284Z,4.30
2022-08-26T11:11:53.059Z,4.13
2022-08-26T11:13:58.957Z,4.20
2022-08-26T11:16:01.079Z,4.10
2022-08-26T11:18:06.912Z,4.27
2022-08-26T11:20:22.549Z,3.92
2022-08-26T11:22:35.506Z,4.68
2022-08-26T11:24:57.767Z,3.58
2022-08-26T11:26:59.648Z,3.80
2022-08-26T11:29:03.157Z,3.95
2022-08-26T11:31:09.582Z,3.97
2022-08-26T11:33:40.897Z,4.22
2022-08-26T11:35:42.576Z,3.50
2022-08-26T11:37:56.591Z,4.00
2022-08-26T11:39:58.441Z,4.38
2022-08-26T11:42:15.400Z,4.60
2022-08-26T11:44:25.533Z,4.07
2022-08-26T11:46:29.705Z,3.90
2022-08-26T11:48:37.085Z,3.97
2022-08-26T11:50:38.846Z,3.80
2022-08-26T11:52:41.036Z,3.78
2022-08-26T11:55:06.412Z,3.45
2022-08-26T11:57:12.900Z,3.40
2022-08-26T11:59:24.967Z,3.40
2022-08-26T12:01:34.123Z,3.40
2022-08-26T12:03:44.992Z,3.55
2022-08-26T12:05:50.387Z,3.45
2022-08-26T12:07:53.167Z,3.20
2022-08-26T12:09:58.532Z,3.65
2022-08-26T12:12:21.432Z,3.53
2022-08-26T12:14:27.808Z,4.00
2022-08-26T12:16:32.959Z,8.00
2022-08-26T12:18:39.058Z,3.60
2022-08-26T12:20:42.118Z,3.42
2022-08-26T12:22:48.106Z,5.50
2022-08-26T12:24:53.932Z,4.22
2022-08-26T12:27:25.394Z,3.38
2022-08-26T12:29:28.343Z,4.63
2022-08-26T12:31:43.031Z,4.10
2022-08-26T12:33:45.161Z,3.78
2022-08-26T12:35:48.541Z,4.80
2022-08-26T12:37:54.791Z,4.38
2022-08-26T12:40:35.289Z,3.83
2022-08-26T12:42:42.171Z,3.42
2022-08-26T12:44:53.080Z,4.00
2022-08-26T12:47:02.761Z,4.05
2022-08-26T12:49:04.686Z,4.00
2022-08-26T12:51:09.062Z,4.00
2022-08-26T12:53:10.822Z,4.35
2022-08-26T12:55:23.209Z,4.53
2022-08-26T12:57:33.635Z,4.10
2022-08-26T12:59:35.468Z,4.20
2022-08-26T13:01:40.823Z,4.63
2022-08-26T13:03:45.328Z,5.00
2022-08-26T13:05:47.174Z,4.50
2022-08-26T13:08:12.326Z,3.80
2022-08-26T13:10:34.440Z,4.20
2022-08-26T13:12:36.303Z,4.35
2022-08-26T13:14:38.196Z,4.40
2022-08-26T13:16:40.931Z,4.03
2022-08-26T13:18:42.806Z,4.47
2022-08-26T13:20:44.684Z,4.13
2022-08-26T13:22:48.165Z,4.53
2022-08-26T13:25:00.449Z,3.85
2022-08-26T13:27:04.029Z,3.90
2022-08-26T13:29:10.055Z,4.30
2022-08-26T13:31:13.568Z,3.92
2022-08-26T13:33:15.731Z,3.50
2022-08-26T13:35:18.315Z,3.83
2022-08-26T13:37:20.179Z,3.70
2022-08-26T13:39:22.820Z,4.40
2022-08-26T13:41:29.289Z,4.47
2022-08-26T13:43:32.190Z,3.70
2022-08-26T13:45:34.039Z,4.23
2022-08-26T13:47:36.152Z,3.95
2022-08-26T13:49:37.953Z,4.03
2022-08-26T13:51:39.913Z,4.65
2022-08-26T13:53:41.718Z,3.45
2022-08-26T13:55:43.932Z,3.88
2022-08-26T13:57:45.780Z,3.60
2022-08-26T13:59:47.579Z,3.33
2022-08-26T14:01:49.416Z,3.67
2022-08-26T14:03:51.365Z,3.47
2022-08-26T14:05:53.472Z,3.22
2022-08-26T14:07:55.321Z,3.60
2022-08-26T14:09:59.828Z,3.88
2022-08-26T14:12:02.845Z,3.30
2022-08-26T14:14:04.760Z,3.60
2022-08-26T14:16:16.385Z,3.17
2022-08-26T14:18:20.844Z,3.72
2022-08-26T14:20:28.938Z,3.50
2022-08-26T14:22:30.849Z,3.88
2022-08-26T14:24:32.656Z,3.20
2022-08-26T14:26:34.837Z,3.55
2022-08-26T14:28:37.925Z,3.70
2022-08-26T14:30:42.633Z,3.92
2022-08-26T14:32:48.557Z,3.63
2022-08-26T14:34:51.067Z,3.55
2022-08-26T14:36:52.900Z,3.60
2022-08-26T14:39:06.179Z,3.45
2022-08-26T14:41:08.023Z,3.70
2022-08-26T14:43:10.064Z,3.63
2022-08-26T14:45:15.701Z,3.67
2022-08-26T14:47:17.587Z,3.53
2022-08-26T14:49:20.305Z,3.45
2022-08-26T14:51:22.222Z,3.85
2022-08-26T14:53:24.967Z,3.47
2022-08-26T14:55:27.660Z,4.55
2022-08-26T14:57:29.475Z,4.38
2022-08-26T14:59:34.046Z,4.07
2022-08-26T15:01:35.989Z,4.00
2022-08-26T15:03:37.845Z,4.13
2022-08-26T15:05:39.704Z,3.72
2022-08-26T15:07:41.537Z,3.88
2022-08-26T15:09:43.368Z,4.50
2022-08-26T15:11:47.586Z,4.40
2022-08-26T15:13:50.001Z,4.57
2022-08-26T15:15:51.867Z,4.10
2022-08-26T15:17:53.759Z,4.22
2022-08-26T15:19:55.728Z,4.15
2022-08-26T15:21:57.637Z,3.92
2022-08-26T15:24:00.562Z,4.50
2022-08-26T15:26:03.290Z,4.88
2022-08-26T15:28:06.237Z,4.47
2022-08-26T15:30:10.870Z,4.20
2022-08-26T15:32:12.733Z,5.75
2022-08-26T15:34:17.057Z,4.80
2022-08-26T15:36:19.134Z,4.05
2022-08-26T15:38:20.958Z,4.63
2022-08-26T15:40:25.544Z,5.55
2022-08-26T15:42:27.494Z,5.00
2022-08-26T15:44:29.459Z,4.78
2022-08-26T15:46:31.351Z,6.00
2022-08-26T15:48:33.223Z,4.75
2022-08-26T15:50:35.084Z,4.13
2022-08-26T15:52:39.570Z,5.10
2022-08-26T15:54:41.399Z,5.35
2022-08-26T15:56:43.625Z,5.00
2022-08-26T15:58:45.554Z,4.85
2022-08-26T16:00:47.828Z,6.40
2022-08-26T16:02:49.758Z,6.18
2022-08-26T16:04:51.564Z,7.05
2022-08-26T16:06:54.192Z,4.80
2022-08-26T16:08:56.506Z,5.20
2022-08-26T16:11:03.427Z,4.57
2022-08-26T16:13:06.244Z,7.35
2022-08-26T16:15:09.756Z,7.18
2022-08-26T16:17:11.603Z,5.30
2022-08-26T16:19:13.545Z,4.93
2022-08-26T16:21:17.669Z,5.70
2022-08-26T16:23:19.583Z,5.20
2022-08-26T16:25:21.939Z,5.45
2022-08-26T16:27:24.043Z,5.22
2022-08-26T16:29:26.036Z,4.78
2022-08-26T16:31:27.908Z,4.75
2022-08-26T16:33:29.817Z,4.78
2022-08-26T16:35:31.757Z,5.18
2022-08-26T16:37:35.440Z,4.68
2022-08-26T16:39:40.198Z,5.63
2022-08-26T16:41:47.120Z,5.53
2022-08-26T16:43:52.040Z,5.10
2022-08-26T16:45:53.993Z,6.20
2022-08-26T16:47:57.340Z,5.07
2022-08-26T16:52:00.990Z,5.53
2022-08-26T16:54:03.518Z,5.00
2022-08-26T16:56:16.467Z,5.13
2022-08-26T16:58:21.075Z,7.43
2022-08-26T17:00:29.804Z,8.10
2022-08-26T17:02:31.680Z,7.80
2022-08-26T17:04:33.795Z,6.10
2022-08-26T17:06:36.101Z,5.97
2022-08-26T17:08:39.571Z,5.05
2022-08-26T17:10:44.367Z,6.43
2022-08-26T17:12:46.562Z,7.65
2022-08-26T17:14:48.698Z,6.15
2022-08-26T17:16:50.951Z,6.72
2022-08-26T17:18:52.810Z,6.18
2022-08-26T17:20:55.221Z,6.13
2022-08-26T17:22:57.223Z,6.82
2022-08-26T17:24:59.096Z,6.07
2022-08-26T17:27:01.323Z,5.63
2022-08-26T17:29:03.233Z,5.70
2022-08-26T17:31:07.593Z,5.88
2022-08-26T17:33:10.814Z,6.50
2022-08-26T17:37:15.660Z,9.75
2022-08-26T17:39:17.867Z,11.18
2022-08-26T17:41:19.660Z,10.98
2022-08-26T17:43:21.436Z,11.05
2022-08-26T17:45:23.333Z,13.77
2022-08-26T17:47:25.138Z,13.82
2022-08-26T17:49:26.967Z,13.18
2022-08-26T17:51:28.784Z,13.45
2022-08-26T17:53:30.519Z,14.05
2022-08-26T17:55:32.355Z,14.57
2022-08-26T17:57:40.482Z,17.75
2022-08-26T17:59:42.714Z,17.65
2022-08-26T18:01:44.560Z,21.92
2022-08-26T18:03:46.432Z,20.02
2022-08-26T18:05:50.737Z,18.27
2022-08-26T18:07:52.516Z,19.23
2022-08-26T18:09:54.279Z,20.50
2022-08-26T18:11:56.076Z,16.55
2022-08-26T18:13:58.748Z,14.73
2022-08-26T18:16:04.420Z,13.90
2022-08-26T18:18:06.343Z,11.93
2022-08-26T18:20:10.835Z,10.77
2022-08-26T18:22:15.780Z,11.00
2022-08-26T18:24:17.960Z,10.43
2022-08-26T18:26:23.892Z,8.68
2022-08-26T18:28:25.684Z,6.75
2022-08-26T18:30:27.461Z,7.70
2022-08-26T18:32:30.358Z,7.90
2022-08-26T18:34:32.111Z,7.82
2022-08-26T18:36:36.612Z,8.15
2022-08-26T18:38:38.410Z,7.72
2022-08-26T18:40:45.750Z,7.68
2022-08-26T18:42:53.954Z,8.48
2022-08-26T18:44:56.074Z,7.25
2022-08-26T18:46:57.831Z,7.57
2022-08-26T18:48:59.775Z,9.00
2022-08-26T18:51:01.533Z,8.85
2022-08-26T18:53:03.321Z,7.68
2022-08-26T18:55:05.713Z,7.75
2022-08-26T18:57:07.510Z,8.52
2022-08-26T18:59:10.366Z,7.20
2022-08-26T19:01:12.701Z,8.40
2022-08-26T19:03:18.839Z,8.57
2022-08-26T19:05:21.036Z,9.18
2022-08-26T19:07:22.784Z,9.60
2022-08-26T19:09:24.611Z,10.13
2022-08-26T19:11:32.020Z,10.13
2022-08-26T19:13:39.381Z,8.50
2022-08-26T19:15:45.026Z,9.93
2022-08-26T19:17:46.806Z,9.27
2022-08-26T19:19:48.655Z,9.70
2022-08-26T19:21:50.859Z,9.88
2022-08-26T19:23:56.649Z,10.60
2022-08-26T19:25:58.659Z,9.63
2022-08-26T19:28:00.441Z,9.80
2022-08-26T19:30:02.236Z,10.23
2022-08-26T19:32:05.135Z,9.48
2022-08-26T19:34:06.968Z,10.30
2022-08-26T19:36:14.965Z,8.70
2022-08-26T19:38:16.864Z,9.15
2022-08-26T19:40:18.722Z,8.77
2022-08-26T19:42:20.846Z,9.70
2022-08-26T19:44:23.706Z,9.43
2022-08-26T19:46:26.021Z,10.15
2022-08-26T19:48:27.889Z,9.85
2022-08-26T19:50:32.143Z,9.85
2022-08-26T19:52:34.178Z,10.85
2022-08-26T19:54:36.285Z,9.40
2022-08-26T19:56:38.054Z,10.70
2022-08-26T19:58:40.388Z,9.70
2022-08-26T20:00:42.137Z,10.30
2022-08-26T20:02:44.485Z,11.40
2022-08-26T20:04:46.442Z,9.23
2022-08-26T20:06:48.175Z,10.98
2022-08-26T20:08:56.230Z,10.73
2022-08-26T20:11:04.784Z,9.90
2022-08-26T20:13:06.528Z,9.85
2022-08-26T20:15:12.759Z,9.35
2022-08-26T20:17:14.694Z,10.52
2022-08-26T20:19:16.545Z,9.70
2022-08-26T20:21:18.390Z,9.65
2022-08-26T20:23:20.231Z,10.52
2022-08-26T20:25:22.156Z,10.10
2022-08-26T20:27:24.330Z,11.07
2022-08-26T20:29:26.436Z,10.75
2022-08-26T20:31:29.041Z,11.23
2022-08-26T20:33:32.219Z,10.93
2022-08-26T20:35:47.991Z,10.85
2022-08-26T20:37:49.925Z,10.80
2022-08-26T20:39:51.774Z,11.23
2022-08-26T20:41:53.617Z,11.35
2022-08-26T20:43:56.315Z,11.07
2022-08-26T20:45:58.262Z,10.63
2022-08-26T20:48:00.179Z,11.70
2022-08-26T20:50:02.095Z,10.77
2022-08-26T20:52:04.591Z,11.85
2022-08-26T20:54:07.094Z,11.40
2022-08-26T20:56:10.988Z,11.63
2022-08-26T20:58:12.844Z,11.48
2022-08-26T21:00:15.069Z,12.00
2022-08-26T21:02:18.795Z,11.40
2022-08-26T21:04:23.451Z,12.05
2022-08-26T21:06:25.340Z,12.27
2022-08-26T21:08:27.152Z,13.57
2022-08-26T21:10:29.034Z,12.63
2022-08-26T21:12:30.930Z,13.43
2022-08-26T21:14:32.823Z,12.05
2022-08-26T21:16:36.438Z,12.55
2022-08-26T21:18:38.978Z,12.02
2022-08-26T21:20:40.867Z,12.27
2022-08-26T21:22:43.221Z,12.73
2022-08-26T21:24:45.075Z,12.27
2022-08-26T21:26:47.591Z,11.85
2022-08-26T21:28:50.051Z,13.00
2022-08-26T21:30:51.882Z,12.07
2022-08-26T21:32:53.710Z,11.85
2022-08-26T21:34:57.338Z,12.02
2022-08-26T21:39:01.484Z,12.05
2022-08-26T21:41:09.894Z,11.43
2022-08-26T21:43:13.128Z,12.52
2022-08-26T21:45:27.878Z,11.25
2022-08-26T21:47:29.922Z,12.00
2022-08-26T21:49:31.770Z,11.73
2022-08-26T21:51:36.796Z,11.95
2022-08-26T21:53:39.112Z,11.52
2022-08-26T21:55:41.133Z,11.65
2022-08-26T21:57:42.982Z,11.05
2022-08-26T21:59:44.796Z,12.38
2022-08-26T22:01:47.345Z,10.45
2022-08-26T22:03:50.825Z,11.50
2022-08-26T22:05:52.966Z,11.75
2022-08-26T22:07:54.931Z,12.73
2022-08-26T22:09:56.749Z,12.23
2022-08-26T22:11:59.360Z,11.88
2022-08-26T22:14:01.219Z,10.85
2022-08-26T22:16:03.662Z,12.32
2022-08-26T22:18:05.639Z,11.75
2022-08-26T22:20:08.527Z,13.10
2022-08-26T22:22:18.599Z,13.40
2022-08-26T22:24:22.771Z,15.07
2022-08-26T22:26:27.899Z,17.75
2022-08-26T22:28:29.853Z,13.70
2022-08-26T22:30:32.202Z,13.68
2022-08-26T22:32:34.054Z,14.15
2022-08-26T22:34:35.928Z,12.98
2022-08-26T22:36:43.092Z,12.90
2022-08-26T22:38:46.961Z,13.52
2022-08-26T22:40:54.041Z,13.45
2022-08-26T22:42:59.999Z,13.38
2022-08-26T22:45:03.962Z,15.13
2022-08-26T22:47:07.565Z,13.65
2022-08-26T22:49:11.936Z,11.63
2022-08-26T22:51:13.958Z,11.00
2022-08-26T22:53:17.169Z,10.90
2022-08-26T22:55:19.038Z,10.95
2022-08-26T22:57:21.442Z,10.25
2022-08-26T22:59:23.288Z,10.10
2022-08-26T23:01:25.305Z,10.23
2022-08-26T23:03:27.981Z,10.65
2022-08-26T23:05:30.401Z,10.90
2022-08-26T23:07:32.264Z,10.75
2022-08-26T23:09:35.002Z,11.48
2022-08-26T23:11:37.213Z,12.73
2022-08-26T23:13:39.435Z,11.23
2022-08-26T23:15:43.047Z,11.38
2022-08-26T23:19:46.589Z,11.70
2022-08-26T23:21:48.786Z,11.07
2022-08-26T23:23:50.605Z,11.48
2022-08-26T23:25:52.418Z,11.55
2022-08-26T23:27:57.217Z,11.18
2022-08-26T23:29:59.189Z,11.60
2022-08-26T23:32:04.517Z,11.20
2022-08-26T23:34:06.888Z,11.60
2022-08-26T23:36:08.936Z,12.15
2022-08-26T23:38:11.698Z,11.70
2022-08-26T23:40:20.936Z,11.27
2022-08-26T23:42:22.866Z,11.43
2022-08-26T23:44:24.902Z,12.05
2022-08-26T23:46:26.784Z,11.50
2022-08-26T23:48:28.608Z,11.65
2022-08-26T23:50:31.991Z,12.10
2022-08-26T23:52:34.003Z,10.85
2022-08-26T23:54:36.194Z,10.45
2022-08-26T23:56:39.426Z,10.82
2022-08-26T23:58:41.635Z,10.95
